sensor_id;sensor_type;location;lat;lon;timestamp;pressure;altitude;pressure_sealevel;temperature;humidity
61488;BME280;47351;53.326;-6.298;2024-03-07T00:02:07;101642.88;;;7.88;87.56
61488;BME280;47351;53.326;-6.298;2024-03-07T00:04:57;101639.34;;;7.88;87.82
61488;BME280;47351;53.326;-6.298;2024-03-07T00:08:00;101636.23;;;7.87;87.83
61488;BME280;47351;53.326;-6.298;2024-03-07T00:10:50;101634.52;;;7.86;88.03
61488;BME280;47351;53.326;-6.298;2024-03-07T00:13:43;101635.67;;;7.87;88.12
61488;BME280;47351;53.326;-6.298;2024-03-07T00:16:35;101643.60;;;7.88;88.08
61488;BME280;47351;53.326;-6.298;2024-03-07T00:19:27;101650.66;;;7.89;88.12
61488;BME280;47351;53.326;-6.298;2024-03-07T00:22:17;101650.46;;;7.89;88.32
61488;BME280;47351;53.326;-6.298;2024-03-07T00:25:11;101654.41;;;7.88;88.35
61488;BME280;47351;53.326;-6.298;2024-03-07T00:28:04;101654.43;;;7.88;88.42
61488;BME280;47351;53.326;-6.298;2024-03-07T00:31:16;101658.70;;;7.88;88.37
61488;BME280;47351;53.326;-6.298;2024-03-07T00:34:06;101660.38;;;7.89;88.55
61488;BME280;47351;53.326;-6.298;2024-03-07T00:37:08;101666.02;;;7.93;88.46
61488;BME280;47351;53.326;-6.298;2024-03-07T00:39:58;101669.02;;;7.95;88.53
61488;BME280;47351;53.326;-6.298;2024-03-07T00:42:48;101665.85;;;7.97;88.78
61488;BME280;47351;53.326;-6.298;2024-03-07T00:45:40;101666.48;;;7.98;88.83
61488;BME280;47351;53.326;-6.298;2024-03-07T00:48:30;101667.02;;;7.98;88.81
61488;BME280;47351;53.326;-6.298;2024-03-07T00:51:20;101667.40;;;7.98;88.82
61488;BME280;47351;53.326;-6.298;2024-03-07T00:54:10;101670.71;;;7.97;88.96
61488;BME280;47351;53.326;-6.298;2024-03-07T00:57:05;101669.26;;;7.95;88.92
61488;BME280;47351;53.326;-6.298;2024-03-07T00:59:58;101661.74;;;7.93;89.03
61488;BME280;47351;53.326;-6.298;2024-03-07T01:02:48;101663.56;;;7.93;89.06
61488;BME280;47351;53.326;-6.298;2024-03-07T01:05:38;101663.53;;;7.93;89.21
61488;BME280;47351;53.326;-6.298;2024-03-07T01:08:34;101666.20;;;7.93;89.68
61488;BME280;47351;53.326;-6.298;2024-03-07T01:11:25;101672.03;;;7.91;90.03
61488;BME280;47351;53.326;-6.298;2024-03-07T01:14:16;101671.67;;;7.88;90.19
61488;BME280;47351;53.326;-6.298;2024-03-07T01:17:06;101670.52;;;7.85;90.62
61488;BME280;47351;53.326;-6.298;2024-03-07T01:20:00;101663.05;;;7.78;91.12
61488;BME280;47351;53.326;-6.298;2024-03-07T01:22:52;101659.61;;;7.72;91.42
61488;BME280;47351;53.326;-6.298;2024-03-07T01:25:42;101663.44;;;7.66;91.56
61488;BME280;47351;53.326;-6.298;2024-03-07T01:28:52;101659.48;;;7.62;91.81
61488;BME280;47351;53.326;-6.298;2024-03-07T01:31:47;101657.65;;;7.60;91.89
61488;BME280;47351;53.326;-6.298;2024-03-07T01:34:38;101652.95;;;7.59;92.01
61488;BME280;47351;53.326;-6.298;2024-03-07T01:37:28;101654.00;;;7.57;91.93
61488;BME280;47351;53.326;-6.298;2024-03-07T01:40:38;101655.63;;;7.54;92.03
61488;BME280;47351;53.326;-6.298;2024-03-07T01:43:28;101654.05;;;7.52;91.95
61488;BME280;47351;53.326;-6.298;2024-03-07T01:46:33;101651.27;;;7.51;92.06
61488;BME280;47351;53.326;-6.298;2024-03-07T01:49:43;101654.30;;;7.51;92.15
61488;BME280;47351;53.326;-6.298;2024-03-07T01:52:38;101653.23;;;7.50;92.38
61488;BME280;47351;53.326;-6.298;2024-03-07T01:55:33;101652.74;;;7.50;92.33
61488;BME280;47351;53.326;-6.298;2024-03-07T01:58:24;101648.05;;;7.49;92.48
61488;BME280;47351;53.326;-6.298;2024-03-07T02:01:25;101647.14;;;7.47;92.57
61488;BME280;47351;53.326;-6.298;2024-03-07T02:04:29;101646.90;;;7.45;92.50
61488;BME280;47351;53.326;-6.298;2024-03-07T02:07:27;101642.23;;;7.43;92.39
61488;BME280;47351;53.326;-6.298;2024-03-07T02:10:25;101640.88;;;7.42;92.47
61488;BME280;47351;53.326;-6.298;2024-03-07T02:13:17;101639.81;;;7.42;92.39
61488;BME280;47351;53.326;-6.298;2024-03-07T02:16:07;101638.14;;;7.43;92.38
61488;BME280;47351;53.326;-6.298;2024-03-07T02:19:08;101633.50;;;7.43;92.43
61488;BME280;47351;53.326;-6.298;2024-03-07T02:22:01;101630.96;;;7.44;92.46
61488;BME280;47351;53.326;-6.298;2024-03-07T02:25:04;101629.29;;;7.42;92.49
61488;BME280;47351;53.326;-6.298;2024-03-07T02:28:00;101631.02;;;7.41;92.49
61488;BME280;47351;53.326;-6.298;2024-03-07T02:30:51;101624.42;;;7.39;92.45
61488;BME280;47351;53.326;-6.298;2024-03-07T02:33:44;101627.35;;;7.38;92.50
61488;BME280;47351;53.326;-6.298;2024-03-07T02:36:37;101624.36;;;7.37;92.51
61488;BME280;47351;53.326;-6.298;2024-03-07T02:39:48;101629.28;;;7.38;92.36
61488;BME280;47351;53.326;-6.298;2024-03-07T02:42:58;101628.99;;;7.37;92.32
61488;BME280;47351;53.326;-6.298;2024-03-07T02:46:08;101629.48;;;7.36;92.32
61488;BME280;47351;53.326;-6.298;2024-03-07T02:49:15;101628.35;;;7.34;92.15
61488;BME280;47351;53.326;-6.298;2024-03-07T02:52:13;101628.98;;;7.33;91.96
61488;BME280;47351;53.326;-6.298;2024-03-07T02:55:08;101626.08;;;7.31;91.79
61488;BME280;47351;53.326;-6.298;2024-03-07T02:58:08;101626.63;;;7.31;91.79
61488;BME280;47351;53.326;-6.298;2024-03-07T03:01:09;101625.68;;;7.32;91.74
61488;BME280;47351;53.326;-6.298;2024-03-07T03:04:18;101625.52;;;7.32;91.62
61488;BME280;47351;53.326;-6.298;2024-03-07T03:07:22;101625.59;;;7.30;91.50
61488;BME280;47351;53.326;-6.298;2024-03-07T03:10:32;101626.35;;;7.30;91.49
61488;BME280;47351;53.326;-6.298;2024-03-07T03:13:30;101624.88;;;7.28;91.52
61488;BME280;47351;53.326;-6.298;2024-03-07T03:16:22;101621.41;;;7.27;91.60
61488;BME280;47351;53.326;-6.298;2024-03-07T03:19:32;101623.75;;;7.27;91.62
61488;BME280;47351;53.326;-6.298;2024-03-07T03:22:35;101625.23;;;7.26;91.88
61488;BME280;47351;53.326;-6.298;2024-03-07T03:25:44;101623.97;;;7.26;92.13
61488;BME280;47351;53.326;-6.298;2024-03-07T03:28:47;101622.73;;;7.26;92.56
61488;BME280;47351;53.326;-6.298;2024-03-07T03:31:40;101624.27;;;7.24;93.01
61488;BME280;47351;53.326;-6.298;2024-03-07T03:34:30;101623.07;;;7.22;93.71
61488;BME280;47351;53.326;-6.298;2024-03-07T03:37:23;101625.98;;;7.16;94.43
61488;BME280;47351;53.326;-6.298;2024-03-07T03:40:13;101631.53;;;7.10;94.99
61488;BME280;47351;53.326;-6.298;2024-03-07T03:43:04;101635.82;;;7.05;95.41
61488;BME280;47351;53.326;-6.298;2024-03-07T03:46:03;101629.14;;;7.02;95.67
61488;BME280;47351;53.326;-6.298;2024-03-07T03:48:53;101627.98;;;6.98;96.01
61488;BME280;47351;53.326;-6.298;2024-03-07T03:51:46;101625.20;;;6.95;96.26
61488;BME280;47351;53.326;-6.298;2024-03-07T03:54:50;101625.76;;;6.92;96.45
61488;BME280;47351;53.326;-6.298;2024-03-07T03:57:49;101625.16;;;6.91;96.73
61488;BME280;47351;53.326;-6.298;2024-03-07T04:00:42;101625.77;;;6.92;96.95
61488;BME280;47351;53.326;-6.298;2024-03-07T04:03:32;101630.27;;;6.93;96.83
61488;BME280;47351;53.326;-6.298;2024-03-07T04:06:22;101632.96;;;6.95;96.85
61488;BME280;47351;53.326;-6.298;2024-03-07T04:09:23;101634.47;;;6.96;96.87
61488;BME280;47351;53.326;-6.298;2024-03-07T04:12:33;101630.77;;;6.96;97.03
61488;BME280;47351;53.326;-6.298;2024-03-07T04:15:23;101638.81;;;6.95;96.95
61488;BME280;47351;53.326;-6.298;2024-03-07T04:18:28;101639.97;;;6.94;96.82
61488;BME280;47351;53.326;-6.298;2024-03-07T04:21:18;101643.27;;;6.93;96.79
61488;BME280;47351;53.326;-6.298;2024-03-07T04:24:16;101645.27;;;6.92;96.87
61488;BME280;47351;53.326;-6.298;2024-03-07T04:27:09;101649.11;;;6.93;96.82
61488;BME280;47351;53.326;-6.298;2024-03-07T04:29:59;101653.78;;;6.95;96.96
61488;BME280;47351;53.326;-6.298;2024-03-07T04:32:52;101659.48;;;6.97;97.02
61488;BME280;47351;53.326;-6.298;2024-03-07T04:36:02;101657.13;;;6.98;96.96
61488;BME280;47351;53.326;-6.298;2024-03-07T04:38:53;101659.90;;;6.99;96.93
61488;BME280;47351;53.326;-6.298;2024-03-07T04:41:46;101663.30;;;7.01;96.90
61488;BME280;47351;53.326;-6.298;2024-03-07T04:44:46;101656.41;;;7.03;96.86
61488;BME280;47351;53.326;-6.298;2024-03-07T04:47:56;101657.41;;;7.06;96.81
61488;BME280;47351;53.326;-6.298;2024-03-07T04:50:49;101665.92;;;7.09;96.85
61488;BME280;47351;53.326;-6.298;2024-03-07T04:53:59;101665.06;;;7.11;96.80
61488;BME280;47351;53.326;-6.298;2024-03-07T04:56:52;101670.64;;;7.12;96.64
61488;BME280;47351;53.326;-6.298;2024-03-07T04:59:42;101674.72;;;7.12;96.50
61488;BME280;47351;53.326;-6.298;2024-03-07T05:02:45;101678.95;;;7.12;96.20
61488;BME280;47351;53.326;-6.298;2024-03-07T05:05:38;101681.23;;;7.13;95.98
61488;BME280;47351;53.326;-6.298;2024-03-07T05:08:33;101686.83;;;7.14;95.73
61488;BME280;47351;53.326;-6.298;2024-03-07T05:11:22;101684.39;;;7.16;95.61
61488;BME280;47351;53.326;-6.298;2024-03-07T05:14:13;101683.35;;;7.18;95.48
61488;BME280;47351;53.326;-6.298;2024-03-07T05:17:12;101684.93;;;7.18;95.32
61488;BME280;47351;53.326;-6.298;2024-03-07T05:20:03;101686.55;;;7.18;95.26
61488;BME280;47351;53.326;-6.298;2024-03-07T05:22:59;101688.38;;;7.17;95.17
61488;BME280;47351;53.326;-6.298;2024-03-07T05:25:48;101688.00;;;7.17;95.13
61488;BME280;47351;53.326;-6.298;2024-03-07T05:28:41;101688.66;;;7.18;95.04
61488;BME280;47351;53.326;-6.298;2024-03-07T05:31:51;101688.77;;;7.19;94.89
61488;BME280;47351;53.326;-6.298;2024-03-07T05:34:40;101692.55;;;7.21;94.79
61488;BME280;47351;53.326;-6.298;2024-03-07T05:37:50;101695.34;;;7.21;94.70
61488;BME280;47351;53.326;-6.298;2024-03-07T05:40:51;101701.37;;;7.22;94.64
61488;BME280;47351;53.326;-6.298;2024-03-07T05:43:41;101698.02;;;7.21;94.48
61488;BME280;47351;53.326;-6.298;2024-03-07T05:46:33;101699.67;;;7.20;94.32
61488;BME280;47351;53.326;-6.298;2024-03-07T05:49:24;101698.15;;;7.19;94.38
61488;BME280;47351;53.326;-6.298;2024-03-07T05:52:34;101696.73;;;7.19;94.33
61488;BME280;47351;53.326;-6.298;2024-03-07T05:55:24;101696.23;;;7.19;94.28
61488;BME280;47351;53.326;-6.298;2024-03-07T05:58:35;101694.80;;;7.19;94.14
61488;BME280;47351;53.326;-6.298;2024-03-07T06:01:27;101696.23;;;7.19;94.04
61488;BME280;47351;53.326;-6.298;2024-03-07T06:04:17;101698.51;;;7.19;93.93
61488;BME280;47351;53.326;-6.298;2024-03-07T06:07:26;101696.39;;;7.19;93.74
61488;BME280;47351;53.326;-6.298;2024-03-07T06:10:19;101693.79;;;7.18;93.67
61488;BME280;47351;53.326;-6.298;2024-03-07T06:13:16;101693.38;;;7.17;93.41
61488;BME280;47351;53.326;-6.298;2024-03-07T06:16:06;101692.77;;;7.15;93.25
61488;BME280;47351;53.326;-6.298;2024-03-07T06:18:56;101690.09;;;7.15;93.11
61488;BME280;47351;53.326;-6.298;2024-03-07T06:22:07;101688.48;;;7.16;93.06
61488;BME280;47351;53.326;-6.298;2024-03-07T06:25:02;101690.70;;;7.17;92.88
61488;BME280;47351;53.326;-6.298;2024-03-07T06:27:55;101686.69;;;7.18;92.78
61488;BME280;47351;53.326;-6.298;2024-03-07T06:30:46;101686.91;;;7.17;92.74
61488;BME280;47351;53.326;-6.298;2024-03-07T06:33:38;101686.70;;;7.15;92.62
61488;BME280;47351;53.326;-6.298;2024-03-07T06:36:38;101688.39;;;7.12;92.64
61488;BME280;47351;53.326;-6.298;2024-03-07T06:39:29;101693.13;;;7.08;92.62
61488;BME280;47351;53.326;-6.298;2024-03-07T06:42:39;101697.25;;;7.03;92.63
61488;BME280;47351;53.326;-6.298;2024-03-07T06:45:49;101695.73;;;6.96;92.54
61488;BME280;47351;53.326;-6.298;2024-03-07T06:48:49;101699.44;;;6.92;92.61
61488;BME280;47351;53.326;-6.298;2024-03-07T06:52:00;101706.00;;;6.87;92.58
61488;BME280;47351;53.326;-6.298;2024-03-07T06:54:53;101707.16;;;6.83;92.73
61488;BME280;47351;53.326;-6.298;2024-03-07T06:58:04;101704.85;;;6.78;92.62
61488;BME280;47351;53.326;-6.298;2024-03-07T07:01:04;101708.70;;;6.74;92.58
61488;BME280;47351;53.326;-6.298;2024-03-07T07:04:18;101708.14;;;6.69;92.61
61488;BME280;47351;53.326;-6.298;2024-03-07T07:07:19;101706.59;;;6.66;92.70
61488;BME280;47351;53.326;-6.298;2024-03-07T07:10:21;101704.04;;;6.64;92.71
61488;BME280;47351;53.326;-6.298;2024-03-07T07:13:34;101701.59;;;6.64;92.79
61488;BME280;47351;53.326;-6.298;2024-03-07T07:16:29;101699.11;;;6.64;92.90
61488;BME280;47351;53.326;-6.298;2024-03-07T07:19:40;101701.55;;;6.65;93.00
61488;BME280;47351;53.326;-6.298;2024-03-07T07:22:51;101700.23;;;6.66;92.95
61488;BME280;47351;53.326;-6.298;2024-03-07T07:26:03;101696.23;;;6.67;93.09
61488;BME280;47351;53.326;-6.298;2024-03-07T07:29:07;101696.66;;;6.71;93.23
61488;BME280;47351;53.326;-6.298;2024-03-07T07:32:17;101699.67;;;6.76;93.24
61488;BME280;47351;53.326;-6.298;2024-03-07T07:35:28;101703.56;;;6.81;93.27
61488;BME280;47351;53.326;-6.298;2024-03-07T07:38:38;101704.73;;;6.87;93.31
61488;BME280;47351;53.326;-6.298;2024-03-07T07:41:49;101701.48;;;6.93;93.35
61488;BME280;47351;53.326;-6.298;2024-03-07T07:44:42;101701.95;;;6.99;93.47
61488;BME280;47351;53.326;-6.298;2024-03-07T07:47:36;101703.34;;;7.04;93.49
61488;BME280;47351;53.326;-6.298;2024-03-07T07:50:45;101702.02;;;7.10;93.33
61488;BME280;47351;53.326;-6.298;2024-03-07T07:53:56;101701.83;;;7.17;93.14
61488;BME280;47351;53.326;-6.298;2024-03-07T07:57:06;101702.80;;;7.24;93.10
61488;BME280;47351;53.326;-6.298;2024-03-07T08:00:16;101703.52;;;7.24;92.71
61488;BME280;47351;53.326;-6.298;2024-03-07T08:03:30;101704.95;;;7.24;92.63
61488;BME280;47351;53.326;-6.298;2024-03-07T08:06:34;101706.41;;;7.25;92.67
61488;BME280;47351;53.326;-6.298;2024-03-07T08:09:45;101707.42;;;7.26;92.47
61488;BME280;47351;53.326;-6.298;2024-03-07T08:12:35;101708.48;;;7.31;92.33
61488;BME280;47351;53.326;-6.298;2024-03-07T08:15:29;101703.15;;;7.38;91.44
61488;BME280;47351;53.326;-6.298;2024-03-07T08:18:30;101701.16;;;7.41;90.88
61488;BME280;47351;53.326;-6.298;2024-03-07T08:21:41;101702.33;;;7.42;91.06
61488;BME280;47351;53.326;-6.298;2024-03-07T08:24:31;101696.73;;;7.44;91.01
61488;BME280;47351;53.326;-6.298;2024-03-07T08:27:29;101700.89;;;7.45;91.09
61488;BME280;47351;53.326;-6.298;2024-03-07T08:30:19;101697.69;;;7.50;91.04
61488;BME280;47351;53.326;-6.298;2024-03-07T08:33:30;101701.56;;;7.55;90.69
61488;BME280;47351;53.326;-6.298;2024-03-07T08:36:22;101702.89;;;7.59;90.20
61488;BME280;47351;53.326;-6.298;2024-03-07T08:39:14;101698.83;;;7.63;89.78
61488;BME280;47351;53.326;-6.298;2024-03-07T08:42:07;101695.98;;;7.63;89.01
61488;BME280;47351;53.326;-6.298;2024-03-07T08:44:57;101691.61;;;7.67;88.84
61488;BME280;47351;53.326;-6.298;2024-03-07T08:48:00;101695.83;;;7.74;89.00
61488;BME280;47351;53.326;-6.298;2024-03-07T08:50:55;101693.75;;;8.32;88.40
61488;BME280;47351;53.326;-6.298;2024-03-07T08:54:05;101694.75;;;8.58;87.44
61488;BME280;47351;53.326;-6.298;2024-03-07T08:56:56;101694.20;;;8.67;85.55
61488;BME280;47351;53.326;-6.298;2024-03-07T08:59:47;101697.60;;;8.58;85.13
61488;BME280;47351;53.326;-6.298;2024-03-07T09:02:46;101697.36;;;8.59;85.53
61488;BME280;47351;53.326;-6.298;2024-03-07T09:05:42;101700.40;;;8.59;85.38
61488;BME280;47351;53.326;-6.298;2024-03-07T09:08:44;101701.42;;;8.59;85.19
61488;BME280;47351;53.326;-6.298;2024-03-07T09:11:33;101705.15;;;8.73;84.65
61488;BME280;47351;53.326;-6.298;2024-03-07T09:14:25;101705.16;;;8.73;83.61
61488;BME280;47351;53.326;-6.298;2024-03-07T09:17:29;101704.02;;;8.65;83.72
61488;BME280;47351;53.326;-6.298;2024-03-07T09:20:39;101701.64;;;8.66;84.45
61488;BME280;47351;53.326;-6.298;2024-03-07T09:23:33;101705.86;;;8.73;84.31
61488;BME280;47351;53.326;-6.298;2024-03-07T09:26:43;101703.31;;;8.76;83.52
61488;BME280;47351;53.326;-6.298;2024-03-07T09:29:46;101704.25;;;8.71;83.80
61488;BME280;47351;53.326;-6.298;2024-03-07T09:32:47;101702.98;;;8.75;83.75
61488;BME280;47351;53.326;-6.298;2024-03-07T09:35:58;101704.35;;;8.65;83.00
61488;BME280;47351;53.326;-6.298;2024-03-07T09:38:50;101707.17;;;8.66;83.67
61488;BME280;47351;53.326;-6.298;2024-03-07T09:42:00;101704.06;;;8.78;83.97
61488;BME280;47351;53.326;-6.298;2024-03-07T09:44:55;101704.22;;;8.89;83.83
61488;BME280;47351;53.326;-6.298;2024-03-07T09:48:07;101701.54;;;9.02;82.93
61488;BME280;47351;53.326;-6.298;2024-03-07T09:51:12;101690.33;;;9.65;81.79
61488;BME280;47351;53.326;-6.298;2024-03-07T09:54:18;101692.08;;;9.81;79.96
61488;BME280;47351;53.326;-6.298;2024-03-07T09:57:12;101695.22;;;9.75;79.94
61488;BME280;47351;53.326;-6.298;2024-03-07T10:00:03;101701.60;;;9.58;79.90
61488;BME280;47351;53.326;-6.298;2024-03-07T10:03:06;101700.96;;;9.34;80.17
61488;BME280;47351;53.326;-6.298;2024-03-07T10:06:00;101701.31;;;9.23;80.62
61488;BME280;47351;53.326;-6.298;2024-03-07T10:09:03;101700.79;;;9.45;80.40
61488;BME280;47351;53.326;-6.298;2024-03-07T10:11:59;101699.01;;;9.51;80.67
61488;BME280;47351;53.326;-6.298;2024-03-07T10:15:04;101696.43;;;9.52;80.08
61488;BME280;47351;53.326;-6.298;2024-03-07T10:17:54;101699.60;;;9.50;79.87
61488;BME280;47351;53.326;-6.298;2024-03-07T10:21:00;101702.34;;;9.37;79.22
61488;BME280;47351;53.326;-6.298;2024-03-07T10:24:07;101698.75;;;9.21;79.41
61488;BME280;47351;53.326;-6.298;2024-03-07T10:27:04;101704.01;;;9.05;79.85
61488;BME280;47351;53.326;-6.298;2024-03-07T10:30:15;101704.13;;;8.90;79.68
61488;BME280;47351;53.326;-6.298;2024-03-07T10:33:17;101701.65;;;8.92;80.21
61488;BME280;47351;53.326;-6.298;2024-03-07T10:36:20;101696.64;;;9.08;79.68
61488;BME280;47351;53.326;-6.298;2024-03-07T10:39:22;101696.77;;;9.58;78.56
61488;BME280;47351;53.326;-6.298;2024-03-07T10:42:16;101685.89;;;9.97;76.63
61488;BME280;47351;53.326;-6.298;2024-03-07T10:45:29;101687.36;;;10.07;75.70
61488;BME280;47351;53.326;-6.298;2024-03-07T10:48:29;101691.44;;;10.13;75.89
61488;BME280;47351;53.326;-6.298;2024-03-07T10:51:36;101689.77;;;10.05;76.05
61488;BME280;47351;53.326;-6.298;2024-03-07T10:54:36;101688.77;;;9.90;76.20
61488;BME280;47351;53.326;-6.298;2024-03-07T10:57:50;101688.73;;;9.87;76.78
61488;BME280;47351;53.326;-6.298;2024-03-07T11:00:54;101689.02;;;10.02;76.51
61488;BME280;47351;53.326;-6.298;2024-03-07T11:03:51;101681.40;;;10.28;73.64
61488;BME280;47351;53.326;-6.298;2024-03-07T11:06:44;101676.80;;;10.30;73.30
61488;BME280;47351;53.326;-6.298;2024-03-07T11:09:38;101673.91;;;10.12;73.08
61488;BME280;47351;53.326;-6.298;2024-03-07T11:12:35;101671.98;;;9.80;73.51
61488;BME280;47351;53.326;-6.298;2024-03-07T11:15:41;101677.55;;;9.58;74.34
61488;BME280;47351;53.326;-6.298;2024-03-07T11:18:31;101679.60;;;9.51;74.69
61488;BME280;47351;53.326;-6.298;2024-03-07T11:21:43;101684.46;;;9.35;74.23
61488;BME280;47351;53.326;-6.298;2024-03-07T11:25:02;101684.38;;;9.21;74.86
61488;BME280;47351;53.326;-6.298;2024-03-07T11:28:05;101683.65;;;9.19;75.46
61488;BME280;47351;53.326;-6.298;2024-03-07T11:31:12;101681.13;;;9.34;75.65
61488;BME280;47351;53.326;-6.298;2024-03-07T11:34:30;101678.98;;;9.62;73.96
61488;BME280;47351;53.326;-6.298;2024-03-07T11:37:40;101674.42;;;9.68;73.92
61488;BME280;47351;53.326;-6.298;2024-03-07T11:40:44;101672.85;;;9.65;74.38
61488;BME280;47351;53.326;-6.298;2024-03-07T11:43:37;101663.52;;;9.56;74.85
61488;BME280;47351;53.326;-6.298;2024-03-07T11:46:47;101665.23;;;9.33;74.49
61488;BME280;47351;53.326;-6.298;2024-03-07T11:49:57;101668.13;;;9.19;74.91
61488;BME280;47351;53.326;-6.298;2024-03-07T11:53:08;101665.89;;;9.14;74.93
61488;BME280;47351;53.326;-6.298;2024-03-07T11:56:06;101667.29;;;9.12;75.23
61488;BME280;47351;53.326;-6.298;2024-03-07T11:59:01;101663.41;;;9.05;74.63
61488;BME280;47351;53.326;-6.298;2024-03-07T12:02:14;101663.36;;;8.97;75.07
61488;BME280;47351;53.326;-6.298;2024-03-07T12:05:26;101658.15;;;9.11;74.52
61488;BME280;47351;53.326;-6.298;2024-03-07T12:08:16;101660.99;;;9.08;75.05
61488;BME280;47351;53.326;-6.298;2024-03-07T12:11:26;101660.77;;;8.96;75.18
61488;BME280;47351;53.326;-6.298;2024-03-07T12:14:35;101664.98;;;8.92;75.57
61488;BME280;47351;53.326;-6.298;2024-03-07T12:17:35;101649.13;;;9.20;74.89
61488;BME280;47351;53.326;-6.298;2024-03-07T12:20:43;101647.09;;;9.62;73.85
61488;BME280;47351;53.326;-6.298;2024-03-07T12:23:46;101643.63;;;9.61;74.34
61488;BME280;47351;53.326;-6.298;2024-03-07T12:26:39;101642.89;;;9.61;74.50
61488;BME280;47351;53.326;-6.298;2024-03-07T12:29:49;101640.40;;;9.61;73.90
61488;BME280;47351;53.326;-6.298;2024-03-07T12:32:49;101638.63;;;9.59;72.53
61488;BME280;47351;53.326;-6.298;2024-03-07T12:35:50;101638.23;;;9.51;72.62
61488;BME280;47351;53.326;-6.298;2024-03-07T12:39:01;101636.40;;;9.35;73.15
61488;BME280;47351;53.326;-6.298;2024-03-07T12:41:58;101632.55;;;9.36;73.02
61488;BME280;47351;53.326;-6.298;2024-03-07T12:44:59;101633.62;;;9.65;72.09
61488;BME280;47351;53.326;-6.298;2024-03-07T12:48:10;101628.16;;;10.06;70.62
61488;BME280;47351;53.326;-6.298;2024-03-07T12:51:04;101626.97;;;10.27;70.04
61488;BME280;47351;53.326;-6.298;2024-03-07T12:53:54;101620.20;;;10.29;68.67
61488;BME280;47351;53.326;-6.298;2024-03-07T12:56:44;101619.64;;;10.31;68.74
61488;BME280;47351;53.326;-6.298;2024-03-07T12:59:39;101609.30;;;10.27;68.02
61488;BME280;47351;53.326;-6.298;2024-03-07T13:02:35;101610.26;;;10.26;68.34
61488;BME280;47351;53.326;-6.298;2024-03-07T13:05:42;101616.27;;;10.25;68.81
61488;BME280;47351;53.326;-6.298;2024-03-07T13:08:50;101607.75;;;10.13;68.92
61488;BME280;47351;53.326;-6.298;2024-03-07T13:11:53;101609.86;;;9.96;68.82
61488;BME280;47351;53.326;-6.298;2024-03-07T13:15:03;101613.12;;;9.68;69.25
61488;BME280;47351;53.326;-6.298;2024-03-07T13:18:09;101610.17;;;9.42;70.21
61488;BME280;47351;53.326;-6.298;2024-03-07T13:21:05;101611.59;;;9.26;71.19
61488;BME280;47351;53.326;-6.298;2024-03-07T13:24:00;101611.94;;;9.09;71.93
61488;BME280;47351;53.326;-6.298;2024-03-07T13:27:10;101620.32;;;8.87;72.16
61488;BME280;47351;53.326;-6.298;2024-03-07T13:30:20;101616.50;;;8.64;72.65
61488;BME280;47351;53.326;-6.298;2024-03-07T13:33:32;101612.89;;;8.65;73.31
61488;BME280;47351;53.326;-6.298;2024-03-07T13:36:44;101604.41;;;8.73;73.64
61488;BME280;47351;53.326;-6.298;2024-03-07T13:39:37;101598.35;;;8.73;73.57
61488;BME280;47351;53.326;-6.298;2024-03-07T13:42:40;101594.46;;;8.68;73.43
61488;BME280;47351;53.326;-6.298;2024-03-07T13:45:50;101592.11;;;8.73;72.08
61488;BME280;47351;53.326;-6.298;2024-03-07T13:49:01;101588.40;;;8.88;71.41
61488;BME280;47351;53.326;-6.298;2024-03-07T13:52:10;101583.04;;;9.16;72.00
61488;BME280;47351;53.326;-6.298;2024-03-07T13:55:20;101586.13;;;9.41;71.39
61488;BME280;47351;53.326;-6.298;2024-03-07T13:58:17;101583.64;;;9.71;70.18
61488;BME280;47351;53.326;-6.298;2024-03-07T14:01:28;101592.84;;;9.88;68.97
61488;BME280;47351;53.326;-6.298;2024-03-07T14:08:33;101584.89;;;9.26;69.22
61488;BME280;47351;53.326;-6.298;2024-03-07T14:11:49;101580.31;;;8.98;69.09
61488;BME280;47351;53.326;-6.298;2024-03-07T14:15:38;101583.02;;;8.62;68.83
61488;BME280;47351;53.326;-6.298;2024-03-07T14:19:10;101585.46;;;8.41;69.70
61488;BME280;47351;53.326;-6.298;2024-03-07T14:22:32;101570.38;;;8.31;70.21
61488;BME280;47351;53.326;-6.298;2024-03-07T14:29:16;101554.54;;;8.52;71.11
61488;BME280;47351;53.326;-6.298;2024-03-07T14:32:10;101557.10;;;8.66;70.84
61488;BME280;47351;53.326;-6.298;2024-03-07T14:35:22;101556.39;;;8.86;70.77
61488;BME280;47351;53.326;-6.298;2024-03-07T14:38:28;101551.21;;;8.98;70.96
61488;BME280;47351;53.326;-6.298;2024-03-07T14:41:45;101553.35;;;8.97;70.80
61488;BME280;47351;53.326;-6.298;2024-03-07T14:44:38;101547.64;;;8.97;69.77
61488;BME280;47351;53.326;-6.298;2024-03-07T14:47:34;101539.75;;;8.95;70.15
61488;BME280;47351;53.326;-6.298;2024-03-07T14:50:37;101537.90;;;8.90;70.46
61488;BME280;47351;53.326;-6.298;2024-03-07T14:53:47;101538.78;;;8.79;70.16
61488;BME280;47351;53.326;-6.298;2024-03-07T14:56:48;101540.04;;;8.66;70.24
61488;BME280;47351;53.326;-6.298;2024-03-07T14:59:59;101538.39;;;8.62;70.31
61488;BME280;47351;53.326;-6.298;2024-03-07T15:03:11;101527.40;;;8.64;70.67
61488;BME280;47351;53.326;-6.298;2024-03-07T15:06:03;101527.58;;;8.70;71.00
61488;BME280;47351;53.326;-6.298;2024-03-07T15:09:06;101520.67;;;8.72;70.57
61488;BME280;47351;53.326;-6.298;2024-03-07T15:11:58;101519.80;;;8.70;70.62
61488;BME280;47351;53.326;-6.298;2024-03-07T15:15:09;101517.63;;;8.70;70.63
61488;BME280;47351;53.326;-6.298;2024-03-07T15:18:07;101510.02;;;8.74;71.10
61488;BME280;47351;53.326;-6.298;2024-03-07T15:21:11;101509.23;;;8.83;71.04
61488;BME280;47351;53.326;-6.298;2024-03-07T15:24:27;101506.54;;;8.88;70.89
61488;BME280;47351;53.326;-6.298;2024-03-07T15:27:40;101495.81;;;8.86;70.87
61488;BME280;47351;53.326;-6.298;2024-03-07T15:30:30;101492.16;;;8.86;70.67
61488;BME280;47351;53.326;-6.298;2024-03-07T15:33:37;101486.59;;;8.81;70.57
61488;BME280;47351;53.326;-6.298;2024-03-07T15:36:27;101485.11;;;8.80;70.32
61488;BME280;47351;53.326;-6.298;2024-03-07T15:39:20;101480.40;;;8.77;70.69
61488;BME280;47351;53.326;-6.298;2024-03-07T15:42:18;101471.51;;;8.72;70.94
61488;BME280;47351;53.326;-6.298;2024-03-07T15:45:18;101464.80;;;8.72;71.28
61488;BME280;47351;53.326;-6.298;2024-03-07T15:48:12;101466.58;;;8.76;71.46
61488;BME280;47351;53.326;-6.298;2024-03-07T15:51:05;101461.49;;;8.75;71.40